Aeroporto :
LOGIN :

Iscrizione | Disclaimer

   EN    FR    IT 

 










Sommario :    VFR   VFR Marginale   IFR   IFR Intensivo   IFR Molto Intensivo
Visibilità : 
Base nubi : 
>= 8 km
>= 3000ft
5 / 8 km
1000 / 3000 ft
1500m / 5 km
500 / 1000 ft
800 / 1500m
200 / 500 ft
< 800m
< 200 ft
Simboli :   Temporali  Nebbia  Neve Forte  Precipitazioni Forti  Vento > 20 kt
SIGMETs :   Varie  Temporali  Ghiacco  Turbolenza  Onda orograficha  Ceneri Vulcaniche






- Altitudine del aeroporto : 412 ft
- Codice IATA : ORE


LFOJ - Orleans

ULTIMO METAR :
  • 171900Z AUTO 25008KT 9999 FEW014/// SCT100/// BKN110/// ///TCU 05/04 Q1023

METARs OBSOLETI :
  • 171830Z AUTO 25015G34KT 220V300 9999 FEW023 SCT043 BKN052 07/04 Q1023 TEMPO 3500 SHRA BKN025CB BECMG 25018KT
  • 171800Z AUTO 24012KT CAVOK 07/04 Q1022 TEMPO 25025G35KT 3500 SHRA BKN025CB
  • 171730Z AUTO 23013KT CAVOK 08/04 Q1022 TEMPO 25025G35KT 3500 SHRA BKN025CB
  • 171700Z AUTO 24013KT CAVOK 09/05 Q1021 TEMPO 25025G35KT 3500 SHRA BKN025CB
  • 171630Z AUTO 23012KT CAVOK 09/06 Q1021 TEMPO 25025G35KT 3500 SHRA BKN025CB

TAF TAF LFOJ
Valido dal 17 a 15 ore il 18 a 15 ore UTC


171400Z 1715/1815 25018KT 9999 BKN035
TEMPO 1718/1720 25025G35KT 3500 SHRA BKN025CB
PROB30
TEMPO 1718/1720 -TSRA



MetMap, La meteo Aeronautica in un colpo d'occhio ! - Copyright ORBIFLY Dicembre 2007 - Disclaimer

ORBIFLY MET'MAP TEAM :

Programmazione e sviluppo : Alexandra Zaïnal
Concezione : Baudouin d'Aumeries
Aiuto per la programmazione : Marc-Olivier Méhu
Supporto tecnico e logistico : Manuel Goepfert
Aiuto per la traduzione : Arnaldo La Scala

Contatto : metmap@orbifly.com




FONTI E CREDITI :

   NOAA